Time;durP1;ratioP1;P1;durP2;ratioP2;P2;SDS_P1;SDS_P2;PMS_P1;PMS_P2;Temp;Humidity;BMP_temperature;BMP_pressure;BME280_temperature;BME280_humidity;BME280_pressure;Samples;Min_cycle;Max_cycle;Signal;HPM_P1;HPM_P2
2022/01/29 00:01:15;;;;;;;;;21.75;17.00;;;;;;;;5094107;27;45375;-66
2022/01/29 00:03:40;;;;;;;;;19.75;16.00;;;;;;;;5094930;27;45561;-66
2022/01/29 00:06:05;;;;;;;;;18.50;16.50;;;;;;;;5094695;27;45485;-67
2022/01/29 00:08:31;;;;;;;;;19.75;17.25;;;;;;;;5095051;27;45465;-66
2022/01/29 00:11:06;;;;;;;;;16.50;15.25;;;;;;;;5094613;27;45316;-65
2022/01/29 00:13:31;;;;;;;;;19.50;18.50;;;;;;;;5093993;27;45461;-66
2022/01/29 00:15:57;;;;;;;;;21.75;15.00;;;;;;;;5097504;27;47165;-66
2022/01/29 00:18:22;;;;;;;;;20.25;16.50;;;;;;;;5098075;27;45318;-66
2022/01/29 00:20:47;;;;;;;;;19.25;17.25;;;;;;;;5080213;27;45504;-66
2022/01/29 00:23:12;;;;;;;;;18.75;15.50;;;;;;;;5097875;27;45428;-66
2022/01/29 00:25:37;;;;;;;;;20.75;16.50;;;;;;;;5096840;27;45511;-67
2022/01/29 00:28:03;;;;;;;;;18.75;17.00;;;;;;;;5097550;27;45509;-67
2022/01/29 00:30:37;;;;;;;;;17.75;14.00;;;;;;;;5097629;27;45483;-65
2022/01/29 00:33:02;;;;;;;;;16.75;15.25;;;;;;;;5097753;27;45279;-67
2022/01/29 00:35:27;;;;;;;;;20.50;16.00;;;;;;;;5098112;27;46221;-67
2022/01/29 00:37:52;;;;;;;;;20.75;15.25;;;;;;;;5097433;27;45524;-67
2022/01/29 00:40:18;;;;;;;;;18.75;17.25;;;;;;;;5097284;27;45540;-67
2022/01/29 00:42:43;;;;;;;;;16.75;15.75;;;;;;;;5097567;27;45503;-67
2022/01/29 00:45:08;;;;;;;;;16.50;16.50;;;;;;;;5097490;27;45753;-65
2022/01/29 00:47:34;;;;;;;;;14.50;14.50;;;;;;;;5117508;27;45431;-65
2022/01/29 00:49:59;;;;;;;;;10.75;10.50;;;;;;;;5118321;27;45486;-66
2022/01/29 00:52:24;;;;;;;;;19.25;18.00;;;;;;;;5118312;27;45320;-66
2022/01/29 00:54:50;;;;;;;;;21.25;15.00;;;;;;;;5118166;27;47318;-66
2022/01/29 00:57:16;;;;;;;;;16.00;15.50;;;;;;;;5118053;27;45490;-66
2022/01/29 00:59:41;;;;;;;;;16.00;16.00;;;;;;;;5118472;27;45420;-66
2022/01/29 01:02:08;;;;;;;;;17.25;14.00;;;;;;;;5117868;27;45389;-66
2022/01/29 01:04:36;;;;;;;;;20.25;18.75;;;;;;;;5117653;27;46502;-65
2022/01/29 01:07:01;;;;;;;;;16.75;13.00;;;;;;;;5118197;27;46912;-65
2022/01/29 01:09:27;;;;;;;;;16.75;15.00;;;;;;;;5118620;27;45548;-65
2022/01/29 01:11:52;;;;;;;;;16.00;14.75;;;;;;;;5118418;27;45430;-65
2022/01/29 01:14:17;;;;;;;;;22.00;18.25;;;;;;;;5117226;27;46053;-66
2022/01/29 01:16:42;;;;;;;;;16.00;15.00;;;;;;;;5118041;27;45419;-66
2022/01/29 01:19:07;;;;;;;;;19.00;16.00;;;;;;;;5117801;27;45614;-66
2022/01/29 01:21:32;;;;;;;;;19.75;15.25;;;;;;;;5118306;27;45307;-65
2022/01/29 01:23:58;;;;;;;;;17.50;13.00;;;;;;;;5118194;27;46086;-65
2022/01/29 01:26:23;;;;;;;;;11.25;10.25;;;;;;;;5117035;27;45521;-65
2022/01/29 01:28:48;;;;;;;;;18.50;17.25;;;;;;;;5117485;27;45440;-66
2022/01/29 01:31:13;;;;;;;;;16.50;15.25;;;;;;;;5117877;27;45576;-65
2022/01/29 01:33:39;;;;;;;;;12.50;10.00;;;;;;;;5117433;27;47137;-65
2022/01/29 01:36:06;;;;;;;;;19.25;18.75;;;;;;;;5117662;27;45393;-66
2022/01/29 01:38:54;;;;;;;;;17.25;13.50;;;;;;;;5117868;27;45302;-65
2022/01/29 01:41:26;;;;;;;;;14.00;14.00;;;;;;;;5117272;27;45357;-65
2022/01/29 01:43:58;;;;;;;;;16.25;16.25;;;;;;;;5116551;27;46174;-65
2022/01/29 01:46:23;;;;;;;;;19.25;16.75;;;;;;;;5117085;27;45483;-65
2022/01/29 01:48:49;;;;;;;;;22.25;21.75;;;;;;;;5117486;27;45458;-65
2022/01/29 01:51:14;;;;;;;;;20.75;16.75;;;;;;;;5117719;27;45320;-66
2022/01/29 01:53:39;;;;;;;;;16.75;16.00;;;;;;;;5118180;27;46087;-66
2022/01/29 01:56:05;;;;;;;;;21.50;19.75;;;;;;;;5117268;27;45497;-65
2022/01/29 01:58:30;;;;;;;;;20.50;16.00;;;;;;;;5117238;27;45476;-65
2022/01/29 02:00:55;;;;;;;;;18.00;16.25;;;;;;;;5117073;27;45427;-65
2022/01/29 02:03:20;;;;;;;;;19.75;19.75;;;;;;;;5117052;27;46179;-66
2022/01/29 02:05:48;;;;;;;;;26.00;20.50;;;;;;;;5117658;27;45413;-65
2022/01/29 02:08:15;;;;;;;;;17.00;13.50;;;;;;;;5117306;27;45212;-65
2022/01/29 02:10:44;;;;;;;;;23.75;18.50;;;;;;;;5117072;27;45647;-66
2022/01/29 02:13:10;;;;;;;;;13.75;12.75;;;;;;;;5116078;27;47149;-65
2022/01/29 02:15:35;;;;;;;;;15.50;14.00;;;;;;;;5116807;27;45581;-65
2022/01/29 02:18:00;;;;;;;;;15.75;14.50;;;;;;;;5117186;27;45359;-65
2022/01/29 02:20:27;;;;;;;;;21.50;19.50;;;;;;;;5117337;27;45403;-66
2022/01/29 02:22:52;;;;;;;;;20.00;17.00;;;;;;;;5116686;27;46135;-66
2022/01/29 02:25:36;;;;;;;;;20.25;17.50;;;;;;;;5098078;27;45872;-66
2022/01/29 02:28:03;;;;;;;;;21.75;18.25;;;;;;;;5116530;27;45492;-66
2022/01/29 02:30:31;;;;;;;;;19.50;18.00;;;;;;;;5117025;27;45502;-66
2022/01/29 02:32:58;;;;;;;;;19.00;16.00;;;;;;;;5117425;27;47265;-66
2022/01/29 02:35:23;;;;;;;;;19.25;17.25;;;;;;;;5116594;27;45714;-66
2022/01/29 02:37:51;;;;;;;;;20.00;18.25;;;;;;;;5115238;27;45817;-66
2022/01/29 02:40:17;;;;;;;;;19.25;16.50;;;;;;;;5116230;27;45280;-66
2022/01/29 02:42:42;;;;;;;;;16.75;15.25;;;;;;;;5096757;27;46230;-66
2022/01/29 02:45:08;;;;;;;;;13.50;13.00;;;;;;;;5098038;27;46043;-66
2022/01/29 02:47:33;;;;;;;;;18.50;18.50;;;;;;;;5097240;27;45538;-66
2022/01/29 02:49:58;;;;;;;;;19.75;14.50;;;;;;;;5095435;27;45454;-66
2022/01/29 02:52:24;;;;;;;;;18.25;16.25;;;;;;;;5095239;27;46905;-66
2022/01/29 02:54:49;;;;;;;;;23.25;21.00;;;;;;;;5095416;27;45278;-66
2022/01/29 02:57:15;;;;;;;;;20.50;20.50;;;;;;;;5096040;27;45316;-66
2022/01/29 02:59:40;;;;;;;;;15.25;12.75;;;;;;;;5096400;27;45471;-66
2022/01/29 03:02:05;;;;;;;;;19.75;15.75;;;;;;;;5095471;27;46146;-66
2022/01/29 03:04:30;;;;;;;;;12.50;12.50;;;;;;;;5095251;27;45930;-66
2022/01/29 03:06:55;;;;;;;;;18.50;17.50;;;;;;;;5095837;27;45253;-66
2022/01/29 03:09:21;;;;;;;;;19.00;16.25;;;;;;;;5076892;27;45454;-66
2022/01/29 03:11:46;;;;;;;;;17.25;17.25;;;;;;;;5077414;27;48287;-66
2022/01/29 03:14:11;;;;;;;;;18.75;14.00;;;;;;;;5095371;27;45461;-66
2022/01/29 03:16:36;;;;;;;;;16.50;13.50;;;;;;;;5095707;27;45278;-66
2022/01/29 03:19:02;;;;;;;;;19.00;17.25;;;;;;;;5095708;27;45358;-66
2022/01/29 03:21:27;;;;;;;;;17.25;11.00;;;;;;;;5095906;27;46110;-66
2022/01/29 03:23:52;;;;;;;;;15.25;13.50;;;;;;;;5095927;27;45488;-66
2022/01/29 03:26:17;;;;;;;;;14.75;12.75;;;;;;;;5095026;27;45656;-66
2022/01/29 03:28:43;;;;;;;;;18.00;16.00;;;;;;;;5095093;27;45505;-66
2022/01/29 03:31:08;;;;;;;;;16.75;13.75;;;;;;;;5095124;27;45408;-66
2022/01/29 03:33:33;;;;;;;;;18.75;15.75;;;;;;;;5095222;27;45449;-66
2022/01/29 03:35:58;;;;;;;;;18.00;14.75;;;;;;;;5095646;27;45525;-66
2022/01/29 03:38:24;;;;;;;;;18.50;14.75;;;;;;;;5094704;27;45572;-66
2022/01/29 03:40:50;;;;;;;;;11.50;11.50;;;;;;;;5094779;27;45953;-66
2022/01/29 03:43:25;;;;;;;;;13.25;13.25;;;;;;;;5094986;27;45507;-66
2022/01/29 03:45:50;;;;;;;;;12.75;12.75;;;;;;;;5100103;27;45503;-66
2022/01/29 03:48:15;;;;;;;;;13.00;12.00;;;;;;;;5115796;27;45376;-66
2022/01/29 03:50:40;;;;;;;;;11.50;11.50;;;;;;;;5116066;27;45517;-66
2022/01/29 03:53:06;;;;;;;;;16.00;14.50;;;;;;;;5114690;27;45644;-66
2022/01/29 03:55:31;;;;;;;;;17.00;14.00;;;;;;;;5115185;27;45304;-66
2022/01/29 03:57:56;;;;;;;;;10.00;9.00;;;;;;;;5115487;27;45312;-66
2022/01/29 04:00:21;;;;;;;;;15.50;13.00;;;;;;;;5115357;27;46177;-66
2022/01/29 04:02:46;;;;;;;;;13.25;13.25;;;;;;;;5116173;27;45180;-66
2022/01/29 04:05:12;;;;;;;;;17.00;14.75;;;;;;;;5115823;27;45458;-66
2022/01/29 04:07:38;;;;;;;;;13.00;12.50;;;;;;;;5115078;27;45400;-66
2022/01/29 04:10:04;;;;;;;;;10.75;8.50;;;;;;;;5115484;27;46190;-66
2022/01/29 04:12:35;;;;;;;;;14.00;12.50;;;;;;;;5115478;27;45562;-66
2022/01/29 04:15:00;;;;;;;;;16.25;14.75;;;;;;;;5115790;27;45451;-66
2022/01/29 04:17:26;;;;;;;;;17.00;14.00;;;;;;;;5115804;27;45417;-66
2022/01/29 04:19:51;;;;;;;;;15.50;13.25;;;;;;;;5114888;27;45480;-66
2022/01/29 04:22:16;;;;;;;;;17.75;15.00;;;;;;;;5114446;27;45406;-66
2022/01/29 04:24:41;;;;;;;;;16.00;13.75;;;;;;;;5114581;27;45505;-66
2022/01/29 04:27:19;;;;;;;;;18.00;14.50;;;;;;;;5115125;27;45369;-65
2022/01/29 04:29:56;;;;;;;;;18.25;17.25;;;;;;;;5114415;27;45337;-65
2022/01/29 04:32:32;;;;;;;;;19.25;15.25;;;;;;;;5115203;27;45537;-65
2022/01/29 04:34:58;;;;;;;;;16.25;16.00;;;;;;;;5115361;27;45446;-65
2022/01/29 04:37:23;;;;;;;;;13.00;11.25;;;;;;;;5114677;27;45475;-66
2022/01/29 04:39:48;;;;;;;;;15.25;14.25;;;;;;;;5096490;27;46148;-66
2022/01/29 04:42:13;;;;;;;;;13.50;12.25;;;;;;;;5115081;27;45331;-65
2022/01/29 04:44:39;;;;;;;;;9.75;9.75;;;;;;;;5115986;27;45515;-65
2022/01/29 04:47:04;;;;;;;;;16.75;14.75;;;;;;;;5114952;27;45497;-65
2022/01/29 04:49:29;;;;;;;;;16.25;15.00;;;;;;;;5114542;27;46129;-65
2022/01/29 04:51:54;;;;;;;;;12.50;11.25;;;;;;;;5114412;27;45403;-65
2022/01/29 04:54:19;;;;;;;;;16.75;16.75;;;;;;;;5115257;27;45458;-65
2022/01/29 04:56:44;;;;;;;;;15.00;15.00;;;;;;;;5115619;27;45384;-66
2022/01/29 04:59:10;;;;;;;;;14.50;14.50;;;;;;;;5114741;27;46448;-66
2022/01/29 05:01:35;;;;;;;;;14.75;13.75;;;;;;;;5115976;27;45583;-65
2022/01/29 05:04:00;;;;;;;;;13.75;12.00;;;;;;;;5118310;27;45439;-66
2022/01/29 05:06:25;;;;;;;;;12.00;11.25;;;;;;;;5118156;27;45423;-66
2022/01/29 05:08:50;;;;;;;;;13.00;11.50;;;;;;;;5117840;27;46605;-65
2022/01/29 05:11:17;;;;;;;;;7.75;7.75;;;;;;;;5117225;27;45394;-66
2022/01/29 05:13:42;;;;;;;;;17.00;13.75;;;;;;;;5117637;27;45415;-65
2022/01/29 05:16:27;;;;;;;;;15.00;15.00;;;;;;;;5118345;27;45353;-66
2022/01/29 05:27:07;;;;;;;;;15.75;14.25;;;;;;;;5114831;27;45409;-67
2022/01/29 05:29:32;;;;;;;;;9.50;9.50;;;;;;;;5117735;27;46080;-66
2022/01/29 05:32:02;;;;;;;;;11.00;11.00;;;;;;;;5117205;27;45432;-66
2022/01/29 05:34:27;;;;;;;;;16.00;13.00;;;;;;;;5117224;27;45206;-66
2022/01/29 05:36:53;;;;;;;;;17.50;14.75;;;;;;;;5117290;27;45383;-67
2022/01/29 05:39:19;;;;;;;;;13.50;13.50;;;;;;;;5117033;27;47002;-65
2022/01/29 05:41:44;;;;;;;;;11.25;11.25;;;;;;;;5117299;27;45336;-65
2022/01/29 05:44:10;;;;;;;;;13.00;10.50;;;;;;;;5116846;27;45423;-65
2022/01/29 05:46:35;;;;;;;;;12.00;12.00;;;;;;;;5116767;27;45456;-65
2022/01/29 05:49:00;;;;;;;;;7.75;7.00;;;;;;;;5116436;27;46424;-66
2022/01/29 05:51:29;;;;;;;;;10.00;10.00;;;;;;;;5117239;27;45573;-66
2022/01/29 05:53:55;;;;;;;;;12.00;12.00;;;;;;;;5117898;27;45302;-65
2022/01/29 05:56:20;;;;;;;;;13.00;11.25;;;;;;;;5116144;27;45501;-66
2022/01/29 05:58:45;;;;;;;;;9.50;8.25;;;;;;;;5115743;27;46835;-65
2022/01/29 06:01:10;;;;;;;;;10.00;7.75;;;;;;;;5116587;27;45530;-66
2022/01/29 06:03:35;;;;;;;;;13.00;11.25;;;;;;;;5097019;27;45464;-65
2022/01/29 06:06:01;;;;;;;;;16.00;12.50;;;;;;;;5117191;27;45302;-66
2022/01/29 06:08:26;;;;;;;;;13.75;11.25;;;;;;;;5116680;27;45335;-65
2022/01/29 06:10:51;;;;;;;;;12.25;11.00;;;;;;;;5116471;27;45267;-65
2022/01/29 06:13:17;;;;;;;;;14.75;13.00;;;;;;;;5116159;27;45804;-66
2022/01/29 06:15:46;;;;;;;;;9.50;8.25;;;;;;;;5116979;27;45373;-66
2022/01/29 06:18:16;;;;;;;;;12.00;12.00;;;;;;;;5116120;27;45488;-66
2022/01/29 06:20:42;;;;;;;;;13.00;12.00;;;;;;;;5116910;27;45435;-65
2022/01/29 06:23:07;;;;;;;;;10.25;10.25;;;;;;;;5116213;27;45375;-65
2022/01/29 06:25:32;;;;;;;;;13.75;7.50;;;;;;;;5116096;27;45482;-66
2022/01/29 06:27:58;;;;;;;;;12.75;11.75;;;;;;;;5115991;27;46084;-65
2022/01/29 06:30:23;;;;;;;;;13.25;10.25;;;;;;;;5116329;27;45535;-66
2022/01/29 06:32:48;;;;;;;;;10.50;10.50;;;;;;;;5117231;27;45377;-66
2022/01/29 06:35:14;;;;;;;;;12.00;11.75;;;;;;;;5116827;27;45466;-66
2022/01/29 06:37:39;;;;;;;;;12.25;9.50;;;;;;;;5116373;27;46510;-66
2022/01/29 06:40:05;;;;;;;;;11.75;10.50;;;;;;;;5116331;27;45382;-66
2022/01/29 06:42:30;;;;;;;;;12.75;11.75;;;;;;;;5115952;27;45525;-66
2022/01/29 06:44:55;;;;;;;;;11.25;7.00;;;;;;;;5116275;27;45440;-65
2022/01/29 06:47:21;;;;;;;;;15.25;14.00;;;;;;;;5115327;27;45470;-65
2022/01/29 06:49:46;;;;;;;;;8.50;8.50;;;;;;;;5115583;27;45364;-65
2022/01/29 06:52:11;;;;;;;;;12.25;10.75;;;;;;;;5115867;27;45567;-65
2022/01/29 06:54:36;;;;;;;;;11.00;10.25;;;;;;;;5115814;27;45319;-66
2022/01/29 06:57:02;;;;;;;;;14.75;11.75;;;;;;;;5115893;27;45601;-66
2022/01/29 06:59:27;;;;;;;;;10.75;9.00;;;;;;;;5115931;27;45404;-65
2022/01/29 07:01:52;;;;;;;;;11.75;11.00;;;;;;;;5115484;27;45839;-66
2022/01/29 07:04:17;;;;;;;;;11.00;9.25;;;;;;;;5115912;27;45546;-66
2022/01/29 07:06:43;;;;;;;;;7.25;6.75;;;;;;;;5115486;27;46091;-65
2022/01/29 07:09:08;;;;;;;;;14.25;12.00;;;;;;;;5115684;27;45477;-65
2022/01/29 07:11:33;;;;;;;;;7.75;7.75;;;;;;;;5116116;27;45272;-66
2022/01/29 07:14:03;;;;;;;;;9.50;8.00;;;;;;;;5115619;27;45561;-65
2022/01/29 07:16:29;;;;;;;;;8.50;8.00;;;;;;;;5114855;27;47368;-65
2022/01/29 07:18:55;;;;;;;;;7.00;7.00;;;;;;;;5079821;27;45465;-66
2022/01/29 07:21:20;;;;;;;;;7.50;6.50;;;;;;;;5115831;27;45466;-65
2022/01/29 07:23:45;;;;;;;;;10.00;9.00;;;;;;;;5115238;27;45419;-65
2022/01/29 07:26:10;;;;;;;;;7.50;6.00;;;;;;;;5114952;27;46565;-65
2022/01/29 07:28:35;;;;;;;;;6.75;6.50;;;;;;;;5114602;27;45632;-66
2022/01/29 07:31:01;;;;;;;;;8.25;7.00;;;;;;;;5114568;27;46036;-66
2022/01/29 07:33:27;;;;;;;;;6.00;5.50;;;;;;;;5115404;27;45370;-66
2022/01/29 07:35:53;;;;;;;;;8.50;6.00;;;;;;;;5115700;27;46190;-66
2022/01/29 07:38:18;;;;;;;;;6.50;6.50;;;;;;;;5114735;27;45445;-66
2022/01/29 07:40:43;;;;;;;;;4.75;4.75;;;;;;;;5114814;27;45328;-66
2022/01/29 07:43:08;;;;;;;;;7.75;6.00;;;;;;;;5115081;27;45384;-65
2022/01/29 07:45:34;;;;;;;;;5.50;4.00;;;;;;;;5114691;27;46227;-65
2022/01/29 07:47:59;;;;;;;;;5.75;5.75;;;;;;;;5115357;27;45314;-65
2022/01/29 07:50:24;;;;;;;;;13.25;10.50;;;;;;;;5115365;27;45262;-65
2022/01/29 07:52:49;;;;;;;;;7.50;4.50;;;;;;;;5114807;27;45356;-75
2022/01/29 07:55:14;;;;;;;;;5.00;5.00;;;;;;;;5114362;27;46905;-74
2022/01/29 07:57:40;;;;;;;;;8.00;5.25;;;;;;;;5114948;27;45317;-74
2022/01/29 08:00:05;;;;;;;;;4.25;4.25;;;;;;;;5114612;27;45314;-73
2022/01/29 08:02:30;;;;;;;;;5.25;5.25;;;;;;;;5115287;27;45416;-74
2022/01/29 08:04:55;;;;;;;;;4.75;4.75;;;;;;;;5114641;27;46345;-75
2022/01/29 08:07:21;;;;;;;;;5.75;4.00;;;;;;;;5114773;27;45417;-74
2022/01/29 08:09:46;;;;;;;;;4.75;3.75;;;;;;;;5114815;27;45341;-74
2022/01/29 08:12:11;;;;;;;;;2.75;2.75;;;;;;;;5115249;27;45406;-74
2022/01/29 08:14:36;;;;;;;;;3.00;3.00;;;;;;;;5096714;27;45983;-74
2022/01/29 08:17:01;;;;;;;;;3.75;3.75;;;;;;;;5115042;27;46897;-74
2022/01/29 08:19:27;;;;;;;;;3.00;3.00;;;;;;;;5115015;27;45446;-74
2022/01/29 08:21:52;;;;;;;;;1.75;1.75;;;;;;;;5115587;27;45371;-74
2022/01/29 08:24:17;;;;;;;;;4.25;3.75;;;;;;;;5114606;27;45331;-73
2022/01/29 08:26:42;;;;;;;;;2.75;2.75;;;;;;;;5115129;27;45408;-75
2022/01/29 08:29:07;;;;;;;;;3.00;3.00;;;;;;;;5113987;27;45403;-74
2022/01/29 08:31:33;;;;;;;;;5.50;5.50;;;;;;;;5114738;27;45444;-74
2022/01/29 08:33:58;;;;;;;;;4.50;3.25;;;;;;;;5114391;27;46019;-74
2022/01/29 08:36:23;;;;;;;;;3.00;3.00;;;;;;;;5115345;27;45457;-72
2022/01/29 08:38:48;;;;;;;;;5.00;3.50;;;;;;;;5118589;27;45735;-75
2022/01/29 08:41:14;;;;;;;;;2.00;2.00;;;;;;;;5118128;27;45453;-75
2022/01/29 08:43:39;;;;;;;;;5.00;4.00;;;;;;;;5117259;27;46068;-74
2022/01/29 08:46:04;;;;;;;;;5.50;4.00;;;;;;;;5117099;27;45438;-75
2022/01/29 08:48:29;;;;;;;;;3.00;3.00;;;;;;;;5117857;27;45535;-74
2022/01/29 08:50:54;;;;;;;;;5.25;4.25;;;;;;;;5118855;27;45360;-74
2022/01/29 08:53:20;;;;;;;;;3.25;3.25;;;;;;;;5117581;27;45532;-76
2022/01/29 08:55:45;;;;;;;;;2.00;2.00;;;;;;;;5118572;27;45312;-74
2022/01/29 08:58:10;;;;;;;;;3.00;3.00;;;;;;;;5117500;27;45520;-73
2022/01/29 09:00:36;;;;;;;;;5.75;4.00;;;;;;;;5118084;27;45451;-72
2022/01/29 09:03:02;;;;;;;;;4.00;4.00;;;;;;;;5118229;27;46337;-73
2022/01/29 09:05:27;;;;;;;;;4.00;4.00;;;;;;;;5117871;27;45464;-72
2022/01/29 09:07:52;;;;;;;;;5.00;5.00;;;;;;;;5117998;27;45285;-74
2022/01/29 09:10:18;;;;;;;;;5.25;5.25;;;;;;;;5117761;27;45373;-73
2022/01/29 09:12:43;;;;;;;;;5.50;3.00;;;;;;;;5117228;27;45799;-74
2022/01/29 09:15:08;;;;;;;;;4.00;4.00;;;;;;;;5116948;27;45241;-74
2022/01/29 09:17:35;;;;;;;;;3.00;2.50;;;;;;;;5117802;27;45351;-75
2022/01/29 09:20:00;;;;;;;;;3.00;3.00;;;;;;;;5117442;27;45508;-74
2022/01/29 09:22:25;;;;;;;;;4.75;3.75;;;;;;;;5116949;27;45263;-74
2022/01/29 09:24:51;;;;;;;;;3.75;3.75;;;;;;;;5117310;27;45545;-73
2022/01/29 09:27:16;;;;;;;;;5.00;5.00;;;;;;;;5116935;27;45200;-73
2022/01/29 09:29:41;;;;;;;;;3.25;2.25;;;;;;;;5117623;27;45420;-74
2022/01/29 09:32:07;;;;;;;;;6.50;3.00;;;;;;;;5116512;27;47167;-74
2022/01/29 09:34:32;;;;;;;;;3.50;3.00;;;;;;;;5117188;27;45487;-74
2022/01/29 09:36:57;;;;;;;;;2.00;2.00;;;;;;;;5116869;27;45320;-74
2022/01/29 09:39:22;;;;;;;;;4.25;2.75;;;;;;;;5116842;27;45304;-74
2022/01/29 09:41:48;;;;;;;;;6.00;5.00;;;;;;;;5116793;27;46061;-72
2022/01/29 09:44:14;;;;;;;;;8.00;7.00;;;;;;;;5116398;27;45680;-73
2022/01/29 09:46:40;;;;;;;;;3.25;2.25;;;;;;;;5115898;27;47598;-73
2022/01/29 09:49:05;;;;;;;;;6.00;3.50;;;;;;;;5116662;27;45599;-74
2022/01/29 09:51:30;;;;;;;;;5.25;4.25;;;;;;;;5116761;27;46542;-75
2022/01/29 09:53:56;;;;;;;;;4.25;3.50;;;;;;;;5117295;27;45377;-72
2022/01/29 09:56:21;;;;;;;;;3.00;3.00;;;;;;;;5115611;27;45461;-75
2022/01/29 09:58:46;;;;;;;;;3.75;3.75;;;;;;;;5115280;27;45340;-75
2022/01/29 10:01:11;;;;;;;;;3.25;3.25;;;;;;;;5115841;27;46136;-74
2022/01/29 10:03:37;;;;;;;;;4.00;4.00;;;;;;;;5115832;27;45424;-75
2022/01/29 10:06:03;;;;;;;;;3.25;3.25;;;;;;;;5116772;27;45341;-73
2022/01/29 10:08:28;;;;;;;;;5.00;4.75;;;;;;;;5116563;27;46346;-74
2022/01/29 10:10:53;;;;;;;;;4.25;3.00;;;;;;;;5115492;27;46770;-74
2022/01/29 10:13:28;;;;;;;;;3.00;3.00;;;;;;;;5116974;27;45431;-73
2022/01/29 10:16:08;;;;;;;;;5.25;3.25;;;;;;;;5116507;27;45536;-74
2022/01/29 10:18:35;;;;;;;;;5.00;4.00;;;;;;;;5100920;27;45511;-77
2022/01/29 10:21:08;;;;;;;;;3.50;2.50;;;;;;;;5116316;27;46199;-76
2022/01/29 10:23:33;;;;;;;;;2.00;2.00;;;;;;;;5115762;27;45452;-74
2022/01/29 10:26:00;;;;;;;;;3.75;3.75;;;;;;;;5115645;27;45374;-74
2022/01/29 10:28:26;;;;;;;;;4.00;4.00;;;;;;;;5115537;27;45323;-74
2022/01/29 10:30:55;;;;;;;;;2.25;2.25;;;;;;;;5115311;27;45479;-75
2022/01/29 10:33:22;;;;;;;;;3.00;3.00;;;;;;;;5115739;27;45394;-74
2022/01/29 10:35:52;;;;;;;;;3.50;1.00;;;;;;;;5116149;27;45447;-73
2022/01/29 10:38:22;;;;;;;;;2.00;2.00;;;;;;;;5115200;27;45619;-73
2022/01/29 10:41:07;;;;;;;;;2.75;2.75;;;;;;;;5114788;27;46352;-75
2022/01/29 10:43:33;;;;;;;;;3.25;2.25;;;;;;;;5114966;27;45547;-76
2022/01/29 10:45:58;;;;;;;;;3.50;3.50;;;;;;;;5116942;27;45493;-75
2022/01/29 10:48:40;;;;;;;;;2.50;2.00;;;;;;;;5117551;27;45584;-75
2022/01/29 10:51:09;;;;;;;;;4.00;3.00;;;;;;;;5113110;27;47381;-74
2022/01/29 10:53:34;;;;;;;;;3.00;3.00;;;;;;;;5115987;27;45564;-76
2022/01/29 10:56:00;;;;;;;;;4.00;3.00;;;;;;;;5115037;27;45358;-76
2022/01/29 10:58:26;;;;;;;;;1.75;1.75;;;;;;;;5114197;27;45351;-76
2022/01/29 11:01:09;;;;;;;;;2.25;2.25;;;;;;;;5115141;27;46171;-75
2022/01/29 11:03:35;;;;;;;;;4.00;4.00;;;;;;;;5104843;27;45438;-75
2022/01/29 11:06:00;;;;;;;;;1.00;1.00;;;;;;;;5105025;27;45422;-75
2022/01/29 11:08:26;;;;;;;;;4.25;3.25;;;;;;;;5128297;27;45341;-73
2022/01/29 11:10:51;;;;;;;;;2.00;1.25;;;;;;;;5127772;27;46305;-74
2022/01/29 11:13:16;;;;;;;;;3.75;2.25;;;;;;;;5121677;27;45366;-76
2022/01/29 11:15:41;;;;;;;;;2.75;2.75;;;;;;;;5116392;27;45391;-75
2022/01/29 11:18:07;;;;;;;;;3.00;3.00;;;;;;;;5115761;27;45366;-74
2022/01/29 11:20:32;;;;;;;;;4.50;3.50;;;;;;;;5116730;27;45388;-77
2022/01/29 11:22:58;;;;;;;;;3.00;2.25;;;;;;;;5115839;27;45384;-76
2022/01/29 11:25:24;;;;;;;;;4.00;4.00;;;;;;;;5115906;27;45347;-74
2022/01/29 11:28:08;;;;;;;;;1.00;1.00;;;;;;;;5115732;27;45492;-77
2022/01/29 11:30:33;;;;;;;;;4.75;3.00;;;;;;;;5098650;27;46024;-75
2022/01/29 11:33:00;;;;;;;;;3.50;3.25;;;;;;;;5115141;27;45343;-76
2022/01/29 11:35:27;;;;;;;;;4.25;2.00;;;;;;;;5115158;27;45422;-73
2022/01/29 11:37:57;;;;;;;;;3.00;1.75;;;;;;;;5114325;27;45640;-73
2022/01/29 11:40:22;;;;;;;;;2.00;2.00;;;;;;;;5114616;27;46717;-74
2022/01/29 11:42:57;;;;;;;;;2.50;1.75;;;;;;;;5114559;27;45488;-75
2022/01/29 11:45:35;;;;;;;;;2.25;1.25;;;;;;;;5114843;27;45425;-74
2022/01/29 11:48:00;;;;;;;;;2.50;1.00;;;;;;;;5112222;27;45284;-73
2022/01/29 11:50:28;;;;;;;;;3.75;3.00;;;;;;;;5115161;27;46421;-74
2022/01/29 11:52:57;;;;;;;;;6.00;4.00;;;;;;;;5114155;27;45432;-74
2022/01/29 11:55:33;;;;;;;;;4.00;2.50;;;;;;;;5115049;27;45550;-71
2022/01/29 11:58:17;;;;;;;;;3.00;2.25;;;;;;;;5114895;27;47249;-74
2022/01/29 12:00:45;;;;;;;;;1.75;1.75;;;;;;;;5081764;27;47405;-76
2022/01/29 12:03:31;;;;;;;;;1.25;1.25;;;;;;;;5114708;27;45308;-75
2022/01/29 12:06:06;;;;;;;;;3.25;3.25;;;;;;;;5103262;27;45426;-74
2022/01/29 12:08:37;;;;;;;;;3.00;3.00;;;;;;;;5114225;27;45420;-77
2022/01/29 12:11:12;;;;;;;;;2.00;2.00;;;;;;;;5116944;27;46448;-75
2022/01/29 12:13:38;;;;;;;;;3.75;2.25;;;;;;;;5118168;27;45516;-77
2022/01/29 12:16:05;;;;;;;;;3.00;3.00;;;;;;;;5117895;27;45281;-74
2022/01/29 12:18:32;;;;;;;;;2.75;2.75;;;;;;;;5118325;27;45368;-76
2022/01/29 12:20:57;;;;;;;;;2.00;1.00;;;;;;;;5117977;27;47140;-75
2022/01/29 12:23:23;;;;;;;;;2.25;2.25;;;;;;;;5118349;27;45489;-76
2022/01/29 12:25:58;;;;;;;;;3.00;3.00;;;;;;;;5118093;27;45272;-74
2022/01/29 12:28:23;;;;;;;;;2.75;2.50;;;;;;;;5117827;27;45440;-73
2022/01/29 12:30:49;;;;;;;;;3.50;2.75;;;;;;;;5117685;27;46968;-74
2022/01/29 12:33:16;;;;;;;;;1.50;1.50;;;;;;;;5118080;27;45407;-74
2022/01/29 12:35:51;;;;;;;;;1.75;1.75;;;;;;;;5118033;27;45340;-76
2022/01/29 12:38:18;;;;;;;;;3.75;2.50;;;;;;;;5117634;27;45391;-74
2022/01/29 12:40:55;;;;;;;;;2.00;2.00;;;;;;;;5117345;27;46428;-73
2022/01/29 12:43:28;;;;;;;;;5.00;5.00;;;;;;;;5117631;27;45371;-75
2022/01/29 12:45:55;;;;;;;;;3.50;1.75;;;;;;;;5117468;27;47510;-74
2022/01/29 12:48:21;;;;;;;;;1.00;1.00;;;;;;;;5117973;27;45606;-74
2022/01/29 12:50:46;;;;;;;;;2.00;2.00;;;;;;;;5117495;27;45554;-75
2022/01/29 12:53:15;;;;;;;;;2.00;0.00;;;;;;;;5117097;27;45182;-74
2022/01/29 12:55:40;;;;;;;;;2.00;2.00;;;;;;;;5117441;27;45414;-76
2022/01/29 12:58:06;;;;;;;;;4.25;4.25;;;;;;;;5116612;27;45383;-77
2022/01/29 13:00:32;;;;;;;;;2.00;2.00;;;;;;;;5098695;27;46236;-75
2022/01/29 13:03:08;;;;;;;;;2.00;2.00;;;;;;;;5117803;27;45441;-73
2022/01/29 13:05:40;;;;;;;;;2.00;2.00;;;;;;;;5115746;27;45272;-74
2022/01/29 13:08:05;;;;;;;;;1.75;1.75;;;;;;;;5116450;27;45522;-74
2022/01/29 13:10:32;;;;;;;;;1.00;1.00;;;;;;;;5116568;27;45465;-74
2022/01/29 13:12:57;;;;;;;;;2.00;1.50;;;;;;;;5117116;27;45461;-74
2022/01/29 13:15:33;;;;;;;;;4.00;2.00;;;;;;;;5117624;27;45439;-75
2022/01/29 13:17:58;;;;;;;;;3.00;3.00;;;;;;;;5113807;27;45289;-74
2022/01/29 13:20:23;;;;;;;;;3.00;3.00;;;;;;;;5116592;27;46436;-74
2022/01/29 13:22:50;;;;;;;;;3.50;3.50;;;;;;;;5115767;27;45510;-75
2022/01/29 13:25:16;;;;;;;;;3.75;3.75;;;;;;;;5116609;27;45398;-74
2022/01/29 13:27:43;;;;;;;;;3.50;3.50;;;;;;;;5117047;27;45528;-75
2022/01/29 13:30:21;;;;;;;;;5.00;5.00;;;;;;;;5116945;27;46314;-74
2022/01/29 13:32:51;;;;;;;;;1.75;1.75;;;;;;;;5097319;27;45790;-74
2022/01/29 13:35:21;;;;;;;;;5.00;2.50;;;;;;;;5117156;27;45224;-75
2022/01/29 13:37:50;;;;;;;;;5.00;3.00;;;;;;;;5116526;27;45554;-76
2022/01/29 13:40:19;;;;;;;;;4.75;3.25;;;;;;;;5116028;27;45372;-75
2022/01/29 13:42:54;;;;;;;;;5.75;5.25;;;;;;;;5116532;27;45395;-74
2022/01/29 13:45:22;;;;;;;;;3.00;3.00;;;;;;;;5116254;27;45344;-75
2022/01/29 13:48:07;;;;;;;;;3.00;3.00;;;;;;;;5117635;27;45541;-80
2022/01/29 13:50:35;;;;;;;;;5.50;3.25;;;;;;;;5116809;27;46250;-77
2022/01/29 13:53:03;;;;;;;;;3.25;3.00;;;;;;;;5098137;27;45769;-77
2022/01/29 13:55:28;;;;;;;;;3.50;3.50;;;;;;;;5117243;27;45446;-76
2022/01/29 13:58:13;;;;;;;;;3.25;3.25;;;;;;;;5116928;27;45569;-78
2022/01/29 14:00:57;;;;;;;;;5.25;4.00;;;;;;;;5116842;27;47632;-76
2022/01/29 14:03:41;;;;;;;;;2.00;2.00;;;;;;;;5116653;27;45392;-77
2022/01/29 14:06:34;;;;;;;;;3.25;3.25;;;;;;;;5114376;27;45281;-76
2022/01/29 14:09:37;;;;;;;;;7.00;7.00;;;;;;;;5112893;27;45306;-79
2022/01/29 14:12:04;;;;;;;;;3.00;3.00;;;;;;;;5113585;27;46206;-78
2022/01/29 14:14:40;;;;;;;;;1.25;1.25;;;;;;;;5117173;27;45322;-80
2022/01/29 14:17:07;;;;;;;;;8.75;6.00;;;;;;;;5115885;27;45388;-74
2022/01/29 14:19:35;;;;;;;;;3.75;3.75;;;;;;;;5116379;27;45433;-77
2022/01/29 14:22:01;;;;;;;;;3.00;2.00;;;;;;;;5097313;27;46199;-77
2022/01/29 14:24:27;;;;;;;;;5.00;5.00;;;;;;;;5099895;27;45352;-78
2022/01/29 14:26:53;;;;;;;;;2.00;2.00;;;;;;;;5118246;27;45243;-76
2022/01/29 14:29:18;;;;;;;;;3.00;1.75;;;;;;;;5116578;27;45478;-75
2022/01/29 14:31:43;;;;;;;;;2.00;2.00;;;;;;;;5096160;27;47382;-76
2022/01/29 14:34:09;;;;;;;;;4.00;3.50;;;;;;;;5116121;27;45627;-78
2022/01/29 14:36:35;;;;;;;;;2.00;2.00;;;;;;;;5117123;27;45465;-78
2022/01/29 14:39:00;;;;;;;;;3.50;2.00;;;;;;;;5117087;27;45197;-79